CDT,Max TemperatureF,Mean TemperatureF,Min TemperatureF,Max Dew PointF,MeanDew PointF,Min DewpointF,Max Humidity, Mean Humidity, Min Humidity, Max Sea Level PressureIn, Mean Sea Level PressureIn, Min Sea Level PressureIn, Max VisibilityMiles, Mean VisibilityMiles, Min VisibilityMiles, Max Wind SpeedMPH, Mean Wind SpeedMPH, Max Gust SpeedMPH,PrecipitationIn, CloudCover, Events, WindDirDegrees
2013-5-1,44,38,33,30,25,19,75,57,46,30.56,30.36,30.05,10,10,10,24,16,29,0.00,1,,345
2013-5-2,46,36,26,27,25,23,93,65,40,30.66,30.57,30.49,10,10,10,23,11,33,0.00,1,,343
2013-5-3,51,38,24,27,22,18,86,55,26,30.49,30.31,30.18,10,10,10,20,11,30,0.00,2,,15
2013-5-4,42,40,37,39,35,25,93,83,49,30.22,30.19,30.17,10,8,2,18,12,21,0.01,8,Rain,21
2013-5-5,51,45,39,43,39,37,93,83,66,30.21,30.18,30.13,10,9,5,9,6,,0.01,8,Rain,341
2013-5-6,71,56,42,46,43,39,93,68,38,30.14,30.09,30.02,10,10,10,7,3,,0.00,4,,249
2013-5-7,78,58,39,48,42,34,93,56,21,30.06,30.00,29.92,10,9,4,13,3,18,0.00,1,Rain,181
2013-5-8,64,60,55,57,53,46,94,79,55,30.03,29.99,29.95,10,9,5,12,5,,0.12,6,Rain,108
2013-5-9,66,58,50,54,49,37,94,76,59,30.15,30.05,30.00,10,9,5,18,9,22,0.01,7,Rain,41
2013-5-10,71,53,35,48,31,21,87,48,18,30.16,30.06,29.89,10,10,10,34,8,44,0.00,1,Rain,1
2013-5-11,55,45,35,34,22,12,70,42,19,30.26,30.20,30.07,10,10,10,33,19,40,0.00,1,,337
2013-5-12,62,43,24,27,18,12,86,37,15,30.25,30.18,30.06,10,10,10,15,6,20,0.00,0,,309
2013-5-13,89,68,48,45,32,19,48,31,15,30.06,29.84,29.63,10,10,10,23,11,29,0.00,0,,188
2013-5-14,95,73,51,48,39,16,72,37,7,29.80,29.62,29.50,10,10,7,33,11,39,0.00,0,Rain-Thunderstorm,296
2013-5-15,82,64,46,46,41,34,82,47,17,29.93,29.86,29.81,10,10,10,18,8,23,0.00,0,,264
2013-5-16,86,65,44,52,39,30,81,41,14,29.90,29.85,29.78,10,10,10,15,6,25,0.00,2,,144
2013-5-17,71,66,60,59,50,34,82,60,27,29.91,29.87,29.84,10,9,4,23,13,29,0.00,7,Thunderstorm,114
2013-5-18,84,72,60,64,60,55,94,71,40,29.87,29.79,29.70,10,8,3,17,11,23,0.07,3,Rain-Thunderstorm,126
2013-5-19,77,70,62,64,62,59,94,80,57,29.71,29.61,29.53,10,8,4,21,10,33,0.33,4,Rain-Thunderstorm,144
2013-5-20,69,64,60,63,57,52,94,80,60,29.54,29.47,29.43,10,7,2,17,6,24,0.23,7,Rain,155
2013-5-21,62,56,50,57,52,46,94,90,77,29.76,29.59,29.47,10,8,2,17,11,23,0.70,8,Rain,69
2013-5-22,55,50,44,52,47,43,94,86,72,30.06,29.86,29.75,10,9,3,23,12,31,0.26,7,Rain,31
2013-5-23,66,54,42,43,39,28,93,58,26,30.31,30.24,30.07,10,10,10,13,7,18,0.00,1,,81
2013-5-24,69,56,44,52,41,34,82,59,28,30.30,30.22,30.11,10,10,7,20,10,29,0.04,3,Rain-Thunderstorm,129
2013-5-25,62,58,53,52,50,48,88,77,68,30.15,30.12,30.08,10,10,4,21,16,29,0.00,7,,128
2013-5-26,57,54,51,50,48,45,88,80,72,30.15,30.08,29.99,10,10,5,26,15,36,0.00,8,Rain-Thunderstorm,120
2013-5-27,64,58,53,55,53,50,94,82,68,30.01,29.88,29.80,10,7,1,16,12,23,0.00,8,,115
2013-5-28,71,63,55,57,55,54,94,81,57,29.80,29.73,29.69,10,7,0,13,6,,0.00,6,Fog,137
2013-5-29,78,66,53,70,61,52,94,86,73,29.77,29.65,29.53,10,7,0,25,9,34,0.49,4,Fog-Rain-Thunderstorm,123
2013-5-30,78,70,62,64,60,57,94,75,47,29.54,29.46,29.42,10,10,3,20,11,30,0.05,5,Rain-Thunderstorm,145
2013-5-31,66,62,57,61,53,50,88,72,64,29.50,29.44,29.38,10,10,7,21,12,31,0.05,6,Rain-Thunderstorm,190